createdAt,value
2016-07-26T00:00:27.928Z,0
2016-07-26T00:01:29.334Z,0
2016-07-26T00:02:29.319Z,0
2016-07-26T00:04:28.617Z,0
2016-07-26T00:05:29.298Z,0
2016-07-26T00:06:28.563Z,0
2016-07-26T00:07:27.909Z,0
2016-07-26T00:08:29.270Z,0
2016-07-26T00:09:28.618Z,0
2016-07-26T00:10:29.259Z,0
2016-07-26T00:11:28.501Z,0
2016-07-26T00:12:29.203Z,0
2016-07-26T00:13:28.484Z,0
2016-07-26T00:14:29.204Z,0
2016-07-26T00:15:29.276Z,0
2016-07-26T00:16:29.188Z,0
2016-07-26T00:17:29.201Z,0
2016-07-26T00:19:29.148Z,0
2016-07-26T00:20:28.439Z,0
2016-07-26T00:21:28.405Z,0
2016-07-26T00:22:28.397Z,0
2016-07-26T00:23:29.119Z,0
2016-07-26T00:24:28.385Z,0
2016-07-26T00:25:28.368Z,0
2016-07-26T00:26:29.069Z,0
2016-07-26T00:27:28.345Z,0
2016-07-26T00:28:28.337Z,0
2016-07-26T00:29:29.034Z,0
2016-07-26T00:30:29.048Z,0
2016-07-26T00:31:29.027Z,0
2016-07-26T00:32:29.025Z,0
2016-07-26T00:33:28.291Z,0
2016-07-26T00:34:29.011Z,0
2016-07-26T00:35:28.266Z,0
2016-07-26T00:36:28.977Z,0
2016-07-26T00:37:28.260Z,0
2016-07-26T00:38:28.241Z,0
2016-07-26T00:39:28.987Z,0
2016-07-26T00:40:28.295Z,0
2016-07-26T00:41:28.231Z,0
2016-07-26T00:42:27.590Z,0
2016-07-26T00:43:28.184Z,0
2016-07-26T00:44:28.260Z,0
2016-07-26T00:45:28.188Z,0
2016-07-26T00:46:28.876Z,0
2016-07-26T00:47:28.877Z,0
2016-07-26T00:48:27.491Z,0
2016-07-26T00:49:28.851Z,0
2016-07-26T00:50:27.409Z,0
2016-07-26T00:51:28.858Z,0
2016-07-26T00:52:28.822Z,0
2016-07-26T00:53:28.815Z,0
2016-07-26T00:54:28.127Z,0
2016-07-26T00:55:28.060Z,0
2016-07-26T00:56:27.337Z,0
2016-07-26T00:57:27.331Z,0
2016-07-26T00:58:28.739Z,0
2016-07-26T00:59:28.054Z,0
2016-07-26T01:00:27.349Z,0
2016-07-26T01:01:28.727Z,0
2016-07-26T01:02:28.721Z,0
2016-07-26T01:03:28.701Z,0
2016-07-26T01:04:27.990Z,0
2016-07-26T01:05:27.958Z,0
2016-07-26T01:06:27.247Z,0
2016-07-26T01:07:28.666Z,0
2016-07-26T01:08:28.756Z,0
2016-07-26T01:09:27.214Z,0
2016-07-26T01:10:28.679Z,0
2016-07-26T01:11:27.901Z,0
2016-07-26T01:12:28.007Z,0
2016-07-26T01:13:28.619Z,0
2016-07-26T01:14:28.592Z,0
2016-07-26T01:15:27.874Z,0
2016-07-26T01:16:27.855Z,0
2016-07-26T01:17:28.568Z,0
2016-07-26T01:18:27.839Z,0
2016-07-26T01:19:28.549Z,0
2016-07-26T01:20:28.527Z,0
2016-07-26T01:21:27.819Z,0
2016-07-26T01:22:27.809Z,0
2016-07-26T01:23:28.485Z,0
2016-07-26T01:24:28.486Z,0
2016-07-26T01:25:27.777Z,0
2016-07-26T01:26:28.464Z,0
2016-07-26T01:27:28.466Z,0
2016-07-26T01:28:27.014Z,0
2016-07-26T01:29:28.437Z,0
2016-07-26T01:30:27.719Z,0
2016-07-26T01:31:28.428Z,0
2016-07-26T01:32:27.697Z,0
2016-07-26T01:33:27.786Z,0
2016-07-26T01:34:28.428Z,0
2016-07-26T01:35:28.375Z,0
2016-07-26T01:36:28.360Z,0
2016-07-26T01:37:28.343Z,0
2016-07-26T01:38:27.680Z,0
2016-07-26T01:39:28.329Z,0
2016-07-26T01:40:28.320Z,0
2016-07-26T01:41:27.596Z,0
2016-07-26T01:42:28.308Z,0
2016-07-26T01:43:28.289Z,0
2016-07-26T01:44:27.560Z,0
2016-07-26T01:45:28.469Z,0
2016-07-26T01:46:27.548Z,0
2016-07-26T01:47:28.254Z,0
2016-07-26T01:48:27.534Z,0
2016-07-26T01:49:28.220Z,0
2016-07-26T01:50:28.220Z,0
2016-07-26T01:51:27.498Z,0
2016-07-26T01:52:28.189Z,0
2016-07-26T01:53:28.180Z,0
2016-07-26T01:54:27.479Z,0
2016-07-26T01:55:28.184Z,0
2016-07-26T01:56:28.148Z,0
2016-07-26T01:57:28.152Z,0
2016-07-26T01:58:27.419Z,0
2016-07-26T01:59:28.110Z,0
2016-07-26T02:00:28.107Z,0
2016-07-26T02:01:28.119Z,0
2016-07-26T02:02:27.368Z,0
2016-07-26T02:03:27.369Z,0
2016-07-26T02:04:27.361Z,0
2016-07-26T02:05:28.109Z,0
2016-07-26T02:06:28.039Z,0
2016-07-26T02:07:27.355Z,0
2016-07-26T02:08:27.310Z,0
2016-07-26T02:09:27.571Z,0
2016-07-26T02:10:27.996Z,0
2016-07-26T02:11:27.280Z,0
2016-07-26T02:12:28.000Z,0
2016-07-26T02:13:28.061Z,0
2016-07-26T02:14:27.970Z,0
2016-07-26T02:15:27.251Z,0
2016-07-26T02:16:27.228Z,0
2016-07-26T02:17:27.936Z,0
2016-07-26T02:18:27.951Z,0
2016-07-26T02:19:27.931Z,0
2016-07-26T02:20:27.902Z,0
2016-07-26T02:21:27.876Z,0
2016-07-26T02:22:27.880Z,0
2016-07-26T02:23:27.882Z,0
2016-07-26T02:24:27.129Z,0
2016-07-26T02:25:27.901Z,0
2016-07-26T02:26:27.834Z,0
2016-07-26T02:27:27.820Z,0
2016-07-26T02:28:27.801Z,0
2016-07-26T02:29:27.800Z,0
2016-07-26T02:30:27.088Z,0
2016-07-26T02:31:27.787Z,0
2016-07-26T02:32:27.772Z,0
2016-07-26T02:33:27.773Z,0
2016-07-26T02:34:27.028Z,0
2016-07-26T02:35:27.014Z,0
2016-07-26T02:36:27.011Z,0
2016-07-26T02:37:27.722Z,0
2016-07-26T02:38:27.701Z,0
2016-07-26T02:39:27.700Z,0
2016-07-26T02:40:27.692Z,0
2016-07-26T02:41:27.672Z,0
2016-07-26T02:42:27.640Z,0
2016-07-26T02:43:27.659Z,0
2016-07-26T02:44:27.651Z,0
2016-07-26T02:45:26.913Z,0
2016-07-26T02:46:27.622Z,0
2016-07-26T02:47:26.180Z,0
2016-07-26T02:48:27.006Z,0
2016-07-26T02:49:27.581Z,0
2016-07-26T02:50:27.664Z,0
2016-07-26T02:51:27.561Z,0
2016-07-26T02:52:26.117Z,0
2016-07-26T02:53:26.825Z,0
2016-07-26T02:54:27.582Z,0
2016-07-26T02:55:26.813Z,0
2016-07-26T02:56:27.552Z,0
2016-07-26T02:57:27.496Z,0
2016-07-26T02:58:26.810Z,0
2016-07-26T02:59:26.040Z,0
2016-07-26T03:00:26.803Z,0
2016-07-26T03:01:27.446Z,0
2016-07-26T03:02:26.732Z,0
2016-07-26T03:03:27.443Z,0
2016-07-26T03:04:26.974Z,0
2016-07-26T03:05:26.692Z,0
2016-07-26T03:06:27.412Z,0
2016-07-26T03:07:27.414Z,0
2016-07-26T03:08:26.679Z,0
2016-07-26T03:09:27.363Z,0
2016-07-26T03:10:27.366Z,0
2016-07-26T03:11:27.352Z,0
2016-07-26T03:12:27.333Z,4
2016-07-26T03:13:26.613Z,0
2016-07-26T03:14:26.592Z,0
2016-07-26T03:15:25.870Z,4
2016-07-26T03:16:26.584Z,4
2016-07-26T03:17:26.562Z,0
2016-07-26T03:18:27.317Z,4
2016-07-26T03:19:26.112Z,4
2016-07-26T03:20:27.292Z,8
2016-07-26T03:21:26.516Z,4
2016-07-26T03:22:27.257Z,4
2016-07-26T03:23:26.524Z,4
2016-07-26T03:24:27.202Z,8
2016-07-26T03:25:27.181Z,8
2016-07-26T03:26:26.452Z,8
2016-07-26T03:27:27.171Z,8
2016-07-26T03:28:27.190Z,12
2016-07-26T03:29:26.412Z,16
2016-07-26T03:30:27.119Z,16
2016-07-26T03:31:27.132Z,16
2016-07-26T03:32:27.142Z,16
2016-07-26T03:33:27.090Z,20
2016-07-26T03:34:26.629Z,20
2016-07-26T03:35:26.398Z,20
2016-07-26T03:36:27.102Z,20
2016-07-26T03:37:27.056Z,24
2016-07-26T03:38:27.039Z,28
2016-07-26T03:39:27.042Z,32
2016-07-26T03:40:27.013Z,32
2016-07-26T03:41:26.281Z,36
2016-07-26T03:42:27.001Z,36
2016-07-26T03:43:26.972Z,44
2016-07-26T03:44:26.983Z,48
2016-07-26T03:45:26.250Z,56
2016-07-26T03:46:26.960Z,68
2016-07-26T03:47:26.217Z,76
2016-07-26T03:48:26.937Z,88
2016-07-26T03:49:25.780Z,104
2016-07-26T03:50:26.913Z,112
2016-07-26T03:51:26.939Z,128
2016-07-26T03:52:26.172Z,136
2016-07-26T03:53:26.877Z,148
2016-07-26T03:54:26.864Z,152
2016-07-26T03:55:26.127Z,160
2016-07-26T03:56:26.864Z,172
2016-07-26T03:57:26.134Z,188
2016-07-26T03:58:26.813Z,204
2016-07-26T03:59:26.881Z,220
2016-07-26T04:00:25.360Z,236
2016-07-26T04:01:26.784Z,248
2016-07-26T04:02:26.784Z,256
2016-07-26T04:03:26.813Z,268
2016-07-26T04:04:24.942Z,276
2016-07-26T04:05:26.784Z,288
2016-07-26T04:06:26.729Z,304
2016-07-26T04:07:26.725Z,324
2016-07-26T04:08:25.999Z,352
2016-07-26T04:09:26.729Z,376
2016-07-26T04:10:25.967Z,404
2016-07-26T04:11:25.953Z,432
2016-07-26T04:12:26.660Z,456
2016-07-26T04:13:26.673Z,476
2016-07-26T04:14:26.646Z,504
2016-07-26T04:15:25.914Z,524
2016-07-26T04:16:26.621Z,536
2016-07-26T04:17:26.603Z,552
2016-07-26T04:18:26.604Z,572
2016-07-26T04:20:26.572Z,616
2016-07-26T04:21:26.572Z,640
2016-07-26T04:22:26.553Z,664
2016-07-26T04:23:26.553Z,680
2016-07-26T04:24:25.813Z,696
2016-07-26T04:25:26.520Z,704
2016-07-26T04:26:25.782Z,720
2016-07-26T04:27:26.488Z,740
2016-07-26T04:28:26.474Z,756
2016-07-26T04:29:26.463Z,772
2016-07-26T04:30:26.461Z,788
2016-07-26T04:31:25.717Z,804
2016-07-26T04:32:26.464Z,816
2016-07-26T04:33:26.432Z,836
2016-07-26T04:35:26.409Z,872
2016-07-26T04:36:26.384Z,896
2016-07-26T04:37:26.377Z,916
2016-07-26T04:38:25.711Z,932
2016-07-26T04:39:26.363Z,952
2016-07-26T04:40:26.356Z,968
2016-07-26T04:41:26.319Z,988
2016-07-26T04:42:26.307Z,1008
2016-07-26T04:43:25.590Z,1028
2016-07-26T04:44:25.589Z,1052
2016-07-26T04:45:26.292Z,1080
2016-07-26T04:46:24.840Z,1112
2016-07-26T04:47:26.273Z,1156
2016-07-26T04:48:25.581Z,1208
2016-07-26T04:50:26.221Z,1280
2016-07-26T04:51:26.213Z,1292
2016-07-26T04:52:26.211Z,1304
2016-07-26T04:53:25.505Z,1328
2016-07-26T04:54:25.495Z,1372
2016-07-26T04:55:25.463Z,1424
2016-07-26T04:56:26.156Z,1472
2016-07-26T04:57:26.126Z,1528
2016-07-26T04:58:26.190Z,1592
2016-07-26T04:59:26.126Z,1664
2016-07-26T05:00:26.209Z,1736
2016-07-26T05:01:25.392Z,1816
2016-07-26T05:02:26.176Z,1936
2016-07-26T05:03:25.358Z,2080
2016-07-26T05:05:26.064Z,2300
2016-07-26T05:06:26.047Z,2356
2016-07-26T05:07:25.311Z,2420
2016-07-26T05:08:25.337Z,2584
2016-07-26T05:09:26.018Z,2660
2016-07-26T05:10:26.010Z,2572
2016-07-26T05:11:25.281Z,2480
2016-07-26T05:12:26.026Z,2456
2016-07-26T05:13:24.530Z,2456
2016-07-26T05:14:25.239Z,2424
2016-07-26T05:15:25.233Z,2436
2016-07-26T05:16:25.941Z,2464
2016-07-26T05:17:25.198Z,2504
2016-07-26T05:18:25.905Z,2580
2016-07-26T05:20:25.929Z,2708
2016-07-26T05:21:25.869Z,2760
2016-07-26T05:22:25.861Z,2708
2016-07-26T05:23:25.891Z,2740
2016-07-26T05:24:25.829Z,2720
2016-07-26T05:25:25.117Z,2676
2016-07-26T05:26:25.819Z,2648
2016-07-26T05:27:25.806Z,2628
2016-07-26T05:28:25.093Z,2600
2016-07-26T05:29:25.086Z,2596
2016-07-26T05:30:25.767Z,2612
2016-07-26T05:31:25.976Z,2632
2016-07-26T05:32:25.769Z,2664
2016-07-26T05:34:25.728Z,2736
2016-07-26T05:35:25.730Z,2788
2016-07-26T05:36:25.727Z,2828
2016-07-26T05:37:25.700Z,2864
2016-07-26T05:38:25.705Z,2904
2016-07-26T05:39:25.673Z,2956
2016-07-26T05:40:24.281Z,3024
2016-07-26T05:41:25.658Z,3088
2016-07-26T05:42:25.658Z,3148
2016-07-26T05:43:25.627Z,3188
2016-07-26T05:44:24.919Z,3236
2016-07-26T05:45:25.611Z,3304
2016-07-26T05:46:24.876Z,3376
2016-07-26T05:47:24.927Z,3424
2016-07-26T05:48:25.573Z,3484
2016-07-26T05:50:25.547Z,3512
2016-07-26T05:51:24.885Z,3528
2016-07-26T05:52:25.539Z,3596
2016-07-26T05:53:25.606Z,3700
2016-07-26T05:54:24.809Z,3784
2016-07-26T05:55:25.654Z,3832
2016-07-26T05:56:25.490Z,3820
2016-07-26T05:57:24.051Z,3800
2016-07-26T05:58:24.768Z,3804
2016-07-26T05:59:24.023Z,3800
2016-07-26T06:00:25.448Z,3804
2016-07-26T06:01:25.517Z,3848
2016-07-26T06:02:25.457Z,3960
2016-07-26T06:03:24.027Z,3948
2016-07-26T06:05:25.432Z,4120
2016-07-26T06:06:25.386Z,4232
2016-07-26T06:07:23.988Z,4376
2016-07-26T06:08:24.637Z,4516
2016-07-26T06:09:24.656Z,4624
2016-07-26T06:10:25.347Z,4720
2016-07-26T06:11:25.406Z,4784
2016-07-26T06:12:24.620Z,4936
2016-07-26T06:13:24.641Z,4920
2016-07-26T06:14:25.295Z,4956
2016-07-26T06:15:25.290Z,5064
2016-07-26T06:16:25.278Z,5072
2016-07-26T06:17:25.291Z,5112
2016-07-26T06:18:25.267Z,5240
2016-07-26T06:20:24.519Z,5444
2016-07-26T06:21:24.517Z,5524
2016-07-26T06:22:25.209Z,5428
2016-07-26T06:23:24.482Z,5392
2016-07-26T06:24:24.519Z,5340
2016-07-26T06:25:25.200Z,5604
2016-07-26T06:26:24.450Z,5844
2016-07-26T06:27:25.247Z,6016
2016-07-26T06:28:25.150Z,6100
2016-07-26T06:29:25.226Z,6148
2016-07-26T06:30:25.120Z,6156
2016-07-26T06:31:24.401Z,6384
2016-07-26T06:32:23.688Z,6524
2016-07-26T06:33:24.389Z,6600
2016-07-26T06:35:25.149Z,6836
2016-07-26T06:36:24.392Z,6880
2016-07-26T06:37:24.337Z,6964
2016-07-26T06:38:25.039Z,6984
2016-07-26T06:39:25.060Z,7020
2016-07-26T06:40:24.346Z,7012
2016-07-26T06:41:25.020Z,7012
2016-07-26T06:42:25.010Z,7004
2016-07-26T06:43:24.279Z,7052
2016-07-26T06:44:24.269Z,6976
2016-07-26T06:45:24.249Z,6864
2016-07-26T06:46:24.990Z,6872
2016-07-26T06:47:23.531Z,6932
2016-07-26T06:48:24.281Z,6932
2016-07-26T06:50:24.961Z,7196
2016-07-26T06:51:24.267Z,7408
2016-07-26T06:52:22.768Z,7556
2016-07-26T06:53:24.178Z,7504
2016-07-26T06:54:24.888Z,7644
2016-07-26T06:55:24.157Z,7828
2016-07-26T06:56:24.160Z,7924
2016-07-26T06:57:23.427Z,8060
2016-07-26T06:58:24.892Z,8212
2016-07-26T06:59:24.125Z,8568
2016-07-26T07:00:24.113Z,9032
2016-07-26T07:01:24.833Z,9200
2016-07-26T07:02:24.092Z,9136
2016-07-26T07:03:24.826Z,8532
2016-07-26T07:05:24.080Z,7940
2016-07-26T07:06:24.057Z,8248
2016-07-26T07:07:24.771Z,8144
2016-07-26T07:08:24.033Z,7988
2016-07-26T07:09:24.767Z,7828
2016-07-26T07:10:24.027Z,7820
2016-07-26T07:11:24.140Z,7928
2016-07-26T07:12:23.285Z,7964
2016-07-26T07:13:24.005Z,8640
2016-07-26T07:14:24.735Z,9652
2016-07-26T07:15:23.990Z,9348
2016-07-26T07:16:24.691Z,10344
2016-07-26T07:17:23.958Z,10120
2016-07-26T07:18:24.671Z,10104
2016-07-26T07:20:24.658Z,11108
2016-07-26T07:21:24.634Z,11544
2016-07-26T07:22:24.641Z,11528
2016-07-26T07:23:24.632Z,11224
2016-07-26T07:24:23.908Z,10884
2016-07-26T07:25:23.881Z,10720
2016-07-26T07:26:24.596Z,10596
2016-07-26T07:27:23.870Z,10440
2016-07-26T07:28:23.850Z,10488
2016-07-26T07:29:24.582Z,10828
2016-07-26T07:30:24.561Z,11068
2016-07-26T07:31:24.549Z,11092
2016-07-26T07:32:24.564Z,10932
2016-07-26T07:33:24.539Z,11016
2016-07-26T07:35:24.505Z,10376
2016-07-26T07:36:24.529Z,10060
2016-07-26T07:37:23.796Z,10252
2016-07-26T07:38:24.489Z,10224
2016-07-26T07:39:23.780Z,10328
2016-07-26T07:40:23.749Z,10712
2016-07-26T07:41:24.540Z,10992
2016-07-26T07:42:24.445Z,11176
2016-07-26T07:43:23.742Z,11436
2016-07-26T07:44:24.444Z,11168
2016-07-26T07:45:23.751Z,11844
2016-07-26T07:46:23.693Z,11708
2016-07-26T07:47:23.705Z,11428
2016-07-26T07:48:23.698Z,11852
2016-07-26T07:50:23.671Z,13260
2016-07-26T07:51:24.385Z,14128
2016-07-26T07:52:24.372Z,14080
2016-07-26T07:53:23.644Z,14132
2016-07-26T07:54:24.362Z,14252
2016-07-26T07:55:24.398Z,14704
2016-07-26T07:56:23.629Z,14288
2016-07-26T07:57:22.990Z,14468
2016-07-26T07:58:24.331Z,13892
2016-07-26T07:59:24.329Z,13404
2016-07-26T08:00:23.601Z,12212
2016-07-26T08:01:23.611Z,12632
2016-07-26T08:02:23.585Z,14268
2016-07-26T08:03:23.570Z,14820
2016-07-26T08:05:24.280Z,15160
2016-07-26T08:06:24.271Z,14572
2016-07-26T08:07:23.554Z,14616
2016-07-26T08:08:23.540Z,14876
2016-07-26T08:09:24.260Z,14436
2016-07-26T08:10:23.549Z,13576
2016-07-26T08:11:23.519Z,15764
2016-07-26T08:12:23.508Z,16160
2016-07-26T08:13:24.236Z,15316
2016-07-26T08:14:23.511Z,14548
2016-07-26T08:15:24.197Z,12544
2016-07-26T08:16:22.780Z,14908
2016-07-26T08:17:22.760Z,14804
2016-07-26T08:18:24.176Z,16640
2016-07-26T08:20:24.159Z,17760
2016-07-26T08:21:24.169Z,17888
2016-07-26T08:22:23.510Z,16168
2016-07-26T08:23:23.434Z,17824
2016-07-26T08:24:24.198Z,28064
2016-07-26T08:25:23.419Z,24384
2016-07-26T08:26:24.207Z,28128
2016-07-26T08:27:24.128Z,19808
2016-07-26T08:28:22.697Z,29056
2016-07-26T08:29:23.399Z,38464
2016-07-26T08:30:24.119Z,28960
2016-07-26T08:31:24.116Z,20832
2016-07-26T08:32:22.657Z,14348
2016-07-26T08:33:24.077Z,11452
2016-07-26T08:35:24.097Z,8876
2016-07-26T08:36:24.059Z,8600
2016-07-26T08:37:23.347Z,11308
2016-07-26T08:38:24.098Z,13344
2016-07-26T08:39:22.618Z,16832
2016-07-26T08:40:23.332Z,52224
2016-07-26T08:41:22.710Z,80768
2016-07-26T08:42:24.029Z,83808
2016-07-26T08:43:23.310Z,80928
2016-07-26T08:44:23.307Z,84544
2016-07-26T08:45:24.039Z,88032
2016-07-26T08:46:24.024Z,81376
2016-07-26T08:47:22.589Z,52960
2016-07-26T08:48:23.285Z,40032
2016-07-26T08:50:23.998Z,14052
2016-07-26T08:51:24.071Z,46592
2016-07-26T08:52:23.981Z,57856
2016-07-26T08:53:24.166Z,79360
2016-07-26T08:54:23.986Z,75648
2016-07-26T08:55:23.259Z,81056
2016-07-26T08:56:22.538Z,83200
2016-07-26T08:57:24.026Z,63712
2016-07-26T08:58:23.247Z,61248
2016-07-26T08:59:23.254Z,30656
2016-07-26T09:00:23.974Z,64032
2016-07-26T09:01:23.979Z,75808
2016-07-26T09:02:22.607Z,75872
2016-07-26T09:03:23.949Z,70304
2016-07-26T09:05:23.957Z,74752
2016-07-26T09:06:23.954Z,25920
2016-07-26T09:07:23.957Z,73632
2016-07-26T09:08:23.250Z,73408
2016-07-26T09:09:23.957Z,19808
2016-07-26T09:10:23.228Z,56960
2016-07-26T09:11:23.966Z,74784
2016-07-26T09:12:23.246Z,52864
2016-07-26T09:13:23.218Z,75744
2016-07-26T09:14:23.959Z,75840
2016-07-26T09:15:22.588Z,80992
2016-07-26T09:16:22.508Z,77952
2016-07-26T09:17:23.950Z,72896
2016-07-26T09:18:23.946Z,72960
2016-07-26T09:20:22.529Z,69056
2016-07-26T09:21:23.959Z,65696
2016-07-26T09:22:24.032Z,66176
2016-07-26T09:23:23.949Z,67008
2016-07-26T09:24:23.976Z,68448
2016-07-26T09:25:23.945Z,53440
2016-07-26T09:26:23.966Z,58112
2016-07-26T09:27:23.944Z,56864
2016-07-26T09:28:23.945Z,61280
2016-07-26T09:29:23.948Z,63360
2016-07-26T09:30:24.006Z,65792
2016-07-26T09:31:23.244Z,62912
2016-07-26T09:32:23.960Z,15140
2016-07-26T09:33:23.961Z,58528
2016-07-26T09:35:23.247Z,62368
2016-07-26T09:36:23.962Z,38368
2016-07-26T09:37:23.239Z,57632
2016-07-26T09:38:23.253Z,63392
2016-07-26T09:39:23.336Z,62336
2016-07-26T09:40:23.248Z,60640
2016-07-26T09:41:23.323Z,58240
2016-07-26T09:42:23.239Z,59392
2016-07-26T09:43:23.398Z,42432
2016-07-26T09:44:22.537Z,50336
2016-07-26T09:45:23.286Z,57184
2016-07-26T09:46:23.977Z,61568
2016-07-26T09:47:24.019Z,62848
2016-07-26T09:48:23.265Z,59744
2016-07-26T09:50:23.281Z,14892
2016-07-26T09:51:24.000Z,12272
2016-07-26T09:52:22.624Z,11524
2016-07-26T09:53:22.559Z,10532
2016-07-26T09:54:23.279Z,10156
2016-07-26T09:55:21.854Z,11852
2016-07-26T09:56:23.999Z,13168
2016-07-26T09:57:23.264Z,10796
2016-07-26T09:58:22.562Z,12384
2016-07-26T09:59:23.277Z,15344
2016-07-26T10:00:23.968Z,46560
2016-07-26T10:01:22.544Z,25568
2016-07-26T10:02:22.626Z,14988
2016-07-26T10:03:23.985Z,45920
2016-07-26T10:05:23.985Z,49952
2016-07-26T10:06:23.279Z,51328
2016-07-26T10:07:23.970Z,51488
2016-07-26T10:08:24.004Z,47744
2016-07-26T10:09:23.975Z,13204
2016-07-26T10:10:23.988Z,10672
2016-07-26T10:11:23.975Z,9812
2016-07-26T10:12:23.246Z,40832
2016-07-26T10:13:23.970Z,44960
2016-07-26T10:14:24.020Z,48032
2016-07-26T10:15:23.967Z,47264
2016-07-26T10:16:23.967Z,43136
2016-07-26T10:17:22.526Z,12404
2016-07-26T10:18:23.323Z,44032
2016-07-26T10:20:23.289Z,44640
2016-07-26T10:21:23.247Z,39520
2016-07-26T10:22:23.947Z,14788
2016-07-26T10:23:23.228Z,17600
2016-07-26T10:24:23.956Z,15552
2016-07-26T10:25:23.263Z,14940
2016-07-26T10:26:23.226Z,14600
2016-07-26T10:27:23.950Z,14136
2016-07-26T10:28:23.258Z,13600
2016-07-26T10:29:23.227Z,13196
2016-07-26T10:30:23.948Z,13860
2016-07-26T10:31:23.947Z,13944
2016-07-26T10:32:23.947Z,13536
2016-07-26T10:33:22.575Z,13324
2016-07-26T10:35:23.228Z,13212
2016-07-26T10:36:23.212Z,13000
2016-07-26T10:37:23.226Z,9952
2016-07-26T10:38:23.217Z,13188
2016-07-26T10:39:24.047Z,9332
2016-07-26T10:40:23.227Z,9800
2016-07-26T10:41:21.848Z,9496
2016-07-26T10:42:23.239Z,9020
2016-07-26T10:43:23.947Z,9008
2016-07-26T10:44:23.210Z,9276
2016-07-26T10:45:23.273Z,9900
2016-07-26T10:46:23.207Z,13580
2016-07-26T10:47:23.918Z,13540
2016-07-26T10:48:23.908Z,13224
2016-07-26T10:50:23.892Z,12872
2016-07-26T10:51:23.189Z,13092
2016-07-26T10:52:23.247Z,13264
2016-07-26T10:53:23.918Z,13196
2016-07-26T10:54:22.506Z,13140
2016-07-26T10:55:23.187Z,12792
2016-07-26T10:56:23.183Z,12380
2016-07-26T10:57:23.179Z,12232
2016-07-26T10:58:23.894Z,12560
2016-07-26T10:59:22.459Z,12656
2016-07-26T11:00:23.877Z,12808
2016-07-26T11:01:23.891Z,13124
2016-07-26T11:02:23.161Z,13488
2016-07-26T11:03:23.159Z,13868
2016-07-26T11:05:23.867Z,13364
2016-07-26T11:06:23.936Z,12932
2016-07-26T11:07:22.420Z,12704
2016-07-26T11:08:23.928Z,12660
2016-07-26T11:09:23.864Z,11784
2016-07-26T11:10:23.907Z,12844
2016-07-26T11:11:23.130Z,12600
2016-07-26T11:12:23.847Z,13268
2016-07-26T11:13:23.864Z,13196
2016-07-26T11:14:23.118Z,13752
2016-07-26T11:15:23.837Z,11132
2016-07-26T11:16:23.129Z,10916
2016-07-26T11:17:22.421Z,10976
2016-07-26T11:18:23.109Z,11300
2016-07-26T11:21:23.827Z,11268
2016-07-26T11:22:23.819Z,10700
2016-07-26T11:23:23.820Z,10620
2016-07-26T11:24:23.100Z,10584
2016-07-26T11:25:23.819Z,10536
2016-07-26T11:26:23.100Z,10864
2016-07-26T11:27:23.795Z,10436
2016-07-26T11:28:23.079Z,10128
2016-07-26T11:29:22.357Z,10724
2016-07-26T11:30:23.071Z,10724
2016-07-26T11:31:23.081Z,9776
2016-07-26T11:32:22.369Z,9188
2016-07-26T11:33:21.729Z,9044
2016-07-26T11:35:23.789Z,9048
2016-07-26T11:37:22.677Z,9548
2016-07-26T11:38:23.773Z,9612
2016-07-26T11:39:22.371Z,9240
2016-07-26T11:40:23.040Z,9132
2016-07-26T11:41:23.044Z,8652
2016-07-26T11:42:23.747Z,8664
2016-07-26T11:43:23.748Z,8520
2016-07-26T11:44:23.748Z,8276
2016-07-26T11:45:23.101Z,8068
2016-07-26T11:46:23.027Z,7820
2016-07-26T11:47:23.099Z,7644
2016-07-26T11:48:23.021Z,7828
2016-07-26T11:50:23.718Z,8304
2016-07-26T11:51:23.089Z,8636
2016-07-26T11:52:23.719Z,8540
2016-07-26T11:53:22.998Z,7892
2016-07-26T11:54:23.707Z,7304
2016-07-26T11:55:22.986Z,7580
2016-07-26T11:56:21.550Z,7292
2016-07-26T11:57:23.684Z,7392
2016-07-26T11:58:23.686Z,7260
2016-07-26T11:59:23.677Z,6968
2016-07-26T12:00:22.961Z,6752
2016-07-26T12:01:23.658Z,7032
2016-07-26T12:02:22.981Z,7324
2016-07-26T12:03:22.965Z,7508
2016-07-26T12:05:23.667Z,7928
2016-07-26T12:06:22.940Z,7704
2016-07-26T12:07:23.637Z,7596
2016-07-26T12:08:23.721Z,7608
2016-07-26T12:09:22.196Z,8160
2016-07-26T12:10:23.684Z,8260
2016-07-26T12:11:22.178Z,8188
2016-07-26T12:12:23.671Z,8304
2016-07-26T12:13:22.901Z,8120
2016-07-26T12:14:23.672Z,7828
2016-07-26T12:15:23.612Z,7448
2016-07-26T12:16:22.884Z,7600
2016-07-26T12:17:22.871Z,8076
2016-07-26T12:18:22.872Z,8292
2016-07-26T12:20:22.850Z,8068
2016-07-26T12:21:22.932Z,7996
2016-07-26T12:22:23.598Z,8208
2016-07-26T12:23:23.549Z,7996
2016-07-26T12:24:23.604Z,7752
2016-07-26T12:25:23.538Z,7772
2016-07-26T12:26:22.834Z,8216
2016-07-26T12:27:22.113Z,8504
2016-07-26T12:28:22.832Z,10604
2016-07-26T12:29:22.827Z,10272
2016-07-26T12:30:22.103Z,10236
2016-07-26T12:31:23.529Z,11456
2016-07-26T12:32:22.797Z,8716
2016-07-26T12:33:23.508Z,7820
2016-07-26T12:35:23.500Z,8068
2016-07-26T12:36:22.766Z,9072
2016-07-26T12:37:23.501Z,7840
2016-07-26T12:38:22.062Z,7304
2016-07-26T12:39:22.773Z,7344
2016-07-26T12:40:22.779Z,7512
2016-07-26T12:41:23.508Z,7236
2016-07-26T12:42:23.475Z,7064
2016-07-26T12:43:23.478Z,8468
2016-07-26T12:44:22.729Z,7356
2016-07-26T12:45:23.490Z,7084
2016-07-26T12:46:23.444Z,7664
2016-07-26T12:47:22.809Z,7984
2016-07-26T12:48:23.441Z,8024
2016-07-26T12:50:22.715Z,8844
2016-07-26T12:51:23.420Z,11600
2016-07-26T12:52:23.429Z,11728
2016-07-26T12:53:22.689Z,8324
2016-07-26T12:54:23.409Z,7932
2016-07-26T12:55:23.541Z,7364
2016-07-26T12:56:22.691Z,7008
2016-07-26T12:57:22.675Z,6928
2016-07-26T12:58:22.858Z,7004
2016-07-26T12:59:21.946Z,6884
2016-07-26T13:00:21.230Z,7040
2016-07-26T13:01:23.378Z,7216
2016-07-26T13:02:23.380Z,7172
2016-07-26T13:03:23.359Z,7328
2016-07-26T13:05:22.626Z,7552
2016-07-26T13:06:23.341Z,7432
2016-07-26T13:07:23.347Z,7256
2016-07-26T13:08:21.909Z,7396
2016-07-26T13:09:22.620Z,10220
2016-07-26T13:10:22.629Z,7424
2016-07-26T13:11:22.600Z,7024
2016-07-26T13:12:22.598Z,7820
2016-07-26T13:13:21.883Z,6096
2016-07-26T13:14:21.253Z,6032
2016-07-26T13:15:21.869Z,5736
2016-07-26T13:16:23.317Z,5992
2016-07-26T13:17:23.296Z,6732
2016-07-26T13:18:23.281Z,6556
2016-07-26T13:20:21.872Z,9440
2016-07-26T13:21:22.559Z,8404
2016-07-26T13:22:22.644Z,6276
2016-07-26T13:23:22.549Z,6740
2016-07-26T13:24:23.261Z,6936
2016-07-26T13:25:23.262Z,10076
2016-07-26T13:26:23.275Z,6232
2016-07-26T13:27:21.826Z,5652
2016-07-26T13:28:22.555Z,5492
2016-07-26T13:29:22.523Z,5548
2016-07-26T13:30:23.275Z,5616
2016-07-26T13:31:23.229Z,5864
2016-07-26T13:32:21.056Z,6008
2016-07-26T13:33:21.800Z,6020
2016-07-26T13:35:23.205Z,6112
2016-07-26T13:36:21.780Z,6272
2016-07-26T13:37:23.187Z,6236
2016-07-26T13:38:21.755Z,5832
2016-07-26T13:39:21.764Z,5800
2016-07-26T13:40:23.199Z,5904
2016-07-26T13:41:23.465Z,6196
2016-07-26T13:42:21.750Z,5792
2016-07-26T13:43:23.167Z,5524
2016-07-26T13:44:23.153Z,5424
2016-07-26T13:45:22.421Z,5584
2016-07-26T13:46:22.428Z,5448
2016-07-26T13:47:22.431Z,5184
2016-07-26T13:48:23.147Z,4876
2016-07-26T13:50:22.404Z,4784
2016-07-26T13:51:22.418Z,4924
2016-07-26T13:52:23.131Z,5192
2016-07-26T13:53:23.137Z,5300
2016-07-26T13:54:22.458Z,5188
2016-07-26T13:55:22.398Z,5028
2016-07-26T13:56:23.100Z,4880
2016-07-26T13:57:23.155Z,4704
2016-07-26T13:58:22.379Z,4636
2016-07-26T13:59:22.369Z,4664
2016-07-26T14:00:22.378Z,4820
2016-07-26T14:01:23.085Z,4732
2016-07-26T14:02:23.053Z,4712
2016-07-26T14:03:22.349Z,4856
2016-07-26T14:05:23.070Z,5276
2016-07-26T14:06:21.617Z,5184
2016-07-26T14:07:20.875Z,5084
2016-07-26T14:08:22.310Z,4960
2016-07-26T14:09:22.316Z,4452
2016-07-26T14:10:23.022Z,3784
2016-07-26T14:11:21.567Z,3344
2016-07-26T14:12:21.604Z,3124
2016-07-26T14:13:22.996Z,3100
2016-07-26T14:14:22.990Z,3384
2016-07-26T14:15:22.978Z,3472
2016-07-26T14:16:22.310Z,3220
2016-07-26T14:17:22.256Z,3048
2016-07-26T14:18:22.965Z,2968